Time;durP1;ratioP1;P1;durP2;ratioP2;P2;SDS_P1;SDS_P2;PMS_P1;PMS_P2;Temp;Humidity;BMP_temperature;BMP_pressure;BME280_temperature;BME280_humidity;BME280_pressure;Samples;Min_cycle;Max_cycle;Signal;HPM_P1;HPM_P2
2021/12/08 00:01:03;;;;;;;2.45;1.50;;;14.00;55.20;;;;;;5032497;28;20553;-72
2021/12/08 00:03:30;;;;;;;3.28;1.48;;;13.90;61.90;;;;;;5032717;28;20136;-73
2021/12/08 00:05:58;;;;;;;2.03;1.30;;;14.00;61.80;;;;;;5034019;28;20410;-72
2021/12/08 00:08:26;;;;;;;2.65;1.50;;;13.90;62.10;;;;;;5032418;28;20080;-72
2021/12/08 00:13:45;;;;;;;2.13;1.40;;;;;;;;;;5033204;28;20049;-73
2021/12/08 00:16:12;;;;;;;3.13;1.50;;;13.60;61.70;;;;;;5032987;28;20053;-72
2021/12/08 00:18:45;;;;;;;2.97;1.67;;;13.70;61.90;;;;;;5033843;28;20128;-72
2021/12/08 00:21:11;;;;;;;3.03;1.40;;;13.80;62.10;;;;;;5032485;28;20095;-72
2021/12/08 00:23:38;;;;;;;3.30;1.50;;;13.80;62.10;;;;;;5033843;28;20045;-72
2021/12/08 00:26:06;;;;;;;2.13;1.40;;;13.60;61.90;;;;;;5033265;28;20083;-73
2021/12/08 00:28:33;;;;;;;2.38;1.30;;;;;;;;;;5012020;28;20138;-72
2021/12/08 00:31:01;;;;;;;2.40;1.40;;;13.70;62.10;;;;;;5012471;28;20085;-72
2021/12/08 00:33:29;;;;;;;2.00;1.40;;;14.20;62.20;;;;;;5012665;28;20093;-72
2021/12/08 00:35:56;;;;;;;3.42;1.50;;;13.70;61.90;;;;;;5013632;28;20058;-72
2021/12/08 00:38:23;;;;;;;2.75;1.40;;;14.10;62.30;;;;;;5012371;28;20060;-72
2021/12/08 00:40:50;;;;;;;3.28;1.80;;;13.60;62.00;;;;;;5013337;28;20060;-72
2021/12/08 00:43:19;;;;;;;2.72;1.42;;;13.70;62.10;;;;;;5019326;28;20137;-72
2021/12/08 00:45:46;;;;;;;2.65;1.40;;;13.70;59.00;;;;;;5032934;28;20057;-72
2021/12/08 00:48:12;;;;;;;1.92;1.30;;;13.40;61.70;;;;;;5032937;28;20573;-72
2021/12/08 00:50:40;;;;;;;2.25;1.42;;;13.80;62.00;;;;;;5032081;28;20133;-72
2021/12/08 00:53:07;;;;;;;2.10;1.30;;;13.80;62.20;;;;;;5032086;28;20061;-72
2021/12/08 00:55:34;;;;;;;2.97;1.48;;;13.70;62.00;;;;;;5032827;28;20137;-73
2021/12/08 00:58:00;;;;;;;3.17;1.50;;;13.60;62.30;;;;;;5032620;28;20140;-72
2021/12/08 01:00:31;;;;;;;2.80;1.40;;;13.60;61.90;;;;;;5032865;28;20128;-72
2021/12/08 01:02:57;;;;;;;2.90;1.35;;;13.80;62.10;;;;;;5031814;28;20228;-72
2021/12/08 01:05:26;;;;;;;1.98;1.30;;;13.50;62.00;;;;;;5032667;28;20136;-72
2021/12/08 01:07:52;;;;;;;2.05;1.45;;;13.50;61.90;;;;;;5032514;28;20132;-72
2021/12/08 01:10:21;;;;;;;2.08;1.40;;;13.60;62.10;;;;;;5031741;28;20063;-72
2021/12/08 01:12:48;;;;;;;2.83;1.40;;;;;;;;;;5032619;28;20735;-72
2021/12/08 01:15:15;;;;;;;2.63;1.20;;;13.70;62.20;;;;;;5032744;28;20129;-72
2021/12/08 01:17:43;;;;;;;2.97;1.55;;;13.60;62.00;;;;;;5032328;28;20152;-72
2021/12/08 01:20:11;;;;;;;2.72;1.40;;;13.40;61.90;;;;;;5031488;28;20132;-72
2021/12/08 01:22:38;;;;;;;1.55;1.20;;;13.70;62.30;;;;;;5031208;28;20715;-72
2021/12/08 01:25:05;;;;;;;2.60;1.30;;;13.70;60.50;;;;;;5032615;28;20057;-72
2021/12/08 01:27:33;;;;;;;3.67;1.50;;;13.70;62.20;;;;;;5030943;28;20149;-73
2021/12/08 01:30:00;;;;;;;2.10;1.38;;;13.50;62.20;;;;;;5031110;28;20054;-72
2021/12/08 01:32:27;;;;;;;1.75;1.40;;;13.50;62.00;;;;;;5031545;28;20053;-72
2021/12/08 01:34:55;;;;;;;2.08;1.33;;;13.60;62.30;;;;;;5032058;28;20120;-72
2021/12/08 01:37:22;;;;;;;2.55;1.30;;;13.40;62.00;;;;;;5031818;28;20570;-72
2021/12/08 01:39:49;;;;;;;1.95;1.15;;;13.50;62.40;;;;;;5031087;28;20140;-73
2021/12/08 01:42:24;;;;;;;2.47;1.40;;;13.70;62.20;;;;;;5031653;28;20073;-72
2021/12/08 01:47:34;;;;;;;2.00;1.10;;;13.60;62.40;;;;;;5031934;28;20050;-75
2021/12/08 01:50:02;;;;;;;1.75;1.20;;;13.40;57.00;;;;;;5030590;28;20525;-75
2021/12/08 01:52:29;;;;;;;2.25;1.20;;;13.40;62.40;;;;;;5031067;28;20556;-75
2021/12/08 01:54:56;;;;;;;2.65;1.40;;;13.70;62.30;;;;;;5031042;28;20136;-75
2021/12/08 01:57:22;;;;;;;2.30;1.30;;;13.20;62.20;;;;;;5030458;28;20128;-75
2021/12/08 01:59:49;;;;;;;2.65;1.30;;;13.10;61.90;;;;;;5030944;28;20136;-74
2021/12/08 02:02:16;;;;;;;1.80;1.10;;;13.40;62.00;;;;;;5030651;28;20077;-74
2021/12/08 02:04:43;;;;;;;1.88;1.10;;;13.30;62.00;;;;;;5030687;28;20132;-75
2021/12/08 02:07:11;;;;;;;2.40;1.13;;;13.60;55.40;;;;;;5030374;28;20152;-74
2021/12/08 02:09:37;;;;;;;2.58;1.20;;;13.60;62.40;;;;;;5032083;28;20414;-74
2021/12/08 02:12:04;;;;;;;1.85;1.10;;;13.70;62.20;;;;;;5031005;28;20141;-75
2021/12/08 02:14:32;;;;;;;2.03;1.20;;;13.20;62.10;;;;;;5030881;28;20084;-75
2021/12/08 02:16:59;;;;;;;2.20;1.10;;;13.60;62.40;;;;;;5047188;28;20148;-75
2021/12/08 02:19:26;;;;;;;1.73;1.05;;;13.60;62.10;;;;;;5030578;28;20061;-73
2021/12/08 02:21:54;;;;;;;1.50;1.10;;;13.40;61.90;;;;;;5030357;28;20128;-75
2021/12/08 02:24:21;;;;;;;1.50;1.10;;;13.70;62.30;;;;;;5030588;28;20561;-75
2021/12/08 02:26:50;;;;;;;1.33;0.80;;;13.80;58.50;;;;;;5030357;28;20140;-74
2021/12/08 02:29:21;;;;;;;1.92;1.15;;;13.60;62.30;;;;;;5030525;28;20054;-74
2021/12/08 02:31:55;;;;;;;1.75;1.15;;;13.70;62.30;;;;;;5029536;28;20084;-74
2021/12/08 02:48:06;;;;;;;1.92;1.10;;;13.70;62.50;;;;;;5031508;28;20042;-75
2021/12/08 02:50:34;;;;;;;1.88;1.20;;;13.80;55.10;;;;;;5046959;28;20088;-74
2021/12/08 02:53:03;;;;;;;1.75;1.13;;;13.90;62.10;;;;;;5032738;28;20081;-74
2021/12/08 02:55:30;;;;;;;2.60;1.17;;;14.00;61.70;;;;;;5033715;28;20136;-75
2021/12/08 02:57:57;;;;;;;2.80;1.10;;;13.80;61.90;;;;;;5033745;28;20077;-74
2021/12/08 03:00:26;;;;;;;1.73;1.10;;;13.90;61.90;;;;;;5034158;28;20133;-75
2021/12/08 03:02:54;;;;;;;1.75;1.25;;;14.00;61.70;;;;;;5033798;28;20057;-73
2021/12/08 03:05:20;;;;;;;1.50;1.10;;;13.80;61.70;;;;;;5034195;28;20140;-75
2021/12/08 03:07:47;;;;;;;2.28;1.20;;;14.00;56.80;;;;;;5033719;28;20057;-74
2021/12/08 03:10:17;;;;;;;1.48;1.00;;;13.80;61.50;;;;;;5034036;28;20144;-75
2021/12/08 03:12:44;;;;;;;1.85;1.00;;;14.00;61.60;;;;;;5033718;28;20524;-74
2021/12/08 03:15:11;;;;;;;2.15;1.10;;;14.00;61.80;;;;;;5033887;28;20497;-73
2021/12/08 03:17:38;;;;;;;2.13;1.10;;;13.90;61.60;;;;;;5049790;28;20132;-74
2021/12/08 03:20:07;;;;;;;1.42;1.10;;;14.00;61.70;;;;;;5033842;28;20136;-73
2021/12/08 03:22:36;;;;;;;2.00;1.25;;;13.90;61.70;;;;;;5033567;28;20053;-74
2021/12/08 03:25:06;;;;;;;2.85;1.10;;;14.00;61.60;;;;;;5033583;28;20065;-75
2021/12/08 03:27:38;;;;;;;2.17;1.13;;;13.90;61.40;;;;;;5033631;28;20410;-75
2021/12/08 03:30:15;;;;;;;1.63;1.00;;;13.90;61.30;;;;;;5032776;28;20624;-74
2021/12/08 03:32:42;;;;;;;2.00;1.00;;;14.10;61.60;;;;;;5033481;28;20398;-74
2021/12/08 03:35:10;;;;;;;1.83;1.10;;;14.00;61.50;;;;;;5033561;28;20096;-75
2021/12/08 03:37:38;;;;;;;1.77;1.10;;;14.00;61.20;;;;;;5033230;28;20472;-75
2021/12/08 03:40:07;;;;;;;1.55;1.00;;;14.10;61.60;;;;;;5049807;28;20061;-75
2021/12/08 03:42:37;;;;;;;2.58;1.30;;;14.10;61.40;;;;;;5033013;28;20124;-75
2021/12/08 03:45:07;;;;;;;1.55;1.10;;;14.00;61.50;;;;;;5033109;28;20045;-75
2021/12/08 03:47:34;;;;;;;1.20;0.88;;;14.10;61.20;;;;;;5033053;28;20054;-74
2021/12/08 03:50:02;;;;;;;1.05;0.90;;;14.00;61.30;;;;;;5033001;28;20077;-74
2021/12/08 03:52:29;;;;;;;1.60;0.98;;;14.20;61.30;;;;;;5033218;28;20077;-75
2021/12/08 03:54:55;;;;;;;1.20;0.98;;;14.20;61.20;;;;;;5032878;28;20141;-75
2021/12/08 03:57:22;;;;;;;1.95;1.13;;;14.20;61.40;;;;;;5032924;28;20136;-74
2021/12/08 03:59:50;;;;;;;1.92;1.20;;;13.90;61.30;;;;;;5033137;28;20057;-74
2021/12/08 04:02:17;;;;;;;2.00;1.13;;;14.00;61.50;;;;;;5032620;28;20546;-74
2021/12/08 04:04:47;;;;;;;1.50;1.10;;;13.90;61.10;;;;;;5032120;28;20055;-75
2021/12/08 04:07:15;;;;;;;2.20;1.05;;;14.10;61.20;;;;;;5032519;28;20107;-74
2021/12/08 04:09:44;;;;;;;1.50;1.00;;;14.20;61.40;;;;;;5032903;28;20087;-75
2021/12/08 04:12:12;;;;;;;1.60;1.10;;;14.20;61.20;;;;;;5032818;28;20132;-74
2021/12/08 04:14:40;;;;;;;1.45;1.00;;;14.20;61.40;;;;;;5032957;28;20088;-74
2021/12/08 04:17:11;;;;;;;1.23;0.93;;;14.20;61.20;;;;;;5032446;28;20140;-74
2021/12/08 04:19:37;;;;;;;1.67;1.00;;;14.20;61.20;;;;;;5031558;28;20136;-74
2021/12/08 04:22:07;;;;;;;1.73;1.00;;;13.90;61.40;;;;;;5032526;28;20545;-74
2021/12/08 04:24:33;;;;;;;1.92;1.10;;;14.20;61.50;;;;;;5032888;28;20464;-75
2021/12/08 04:27:04;;;;;;;2.17;1.00;;;14.20;61.30;;;;;;5032213;28;20133;-75
2021/12/08 04:29:34;;;;;;;1.30;0.82;;;14.30;61.10;;;;;;5032419;28;20132;-73
2021/12/08 04:32:01;;;;;;;0.88;0.88;;;;;;;;;;5033638;28;20504;-75
2021/12/08 04:34:33;;;;;;;1.13;0.95;;;14.30;61.40;;;;;;5032208;28;20140;-75
2021/12/08 04:37:04;;;;;;;1.25;0.90;;;14.10;61.20;;;;;;5032092;28;20061;-74
2021/12/08 04:39:41;;;;;;;1.80;1.10;;;14.20;61.20;;;;;;5032244;28;20053;-75
2021/12/08 04:42:13;;;;;;;1.60;1.00;;;14.20;59.70;;;;;;5031686;28;20125;-74
2021/12/08 04:44:45;;;;;;;1.10;1.00;;;14.40;61.30;;;;;;5032317;28;20057;-74
2021/12/08 04:47:31;;;;;;;1.48;1.00;;;14.30;61.10;;;;;;5031754;28;20054;-74
2021/12/08 04:53:00;;;;;;;1.52;1.05;;;13.60;61.00;;;;;;5031707;28;20056;-74
2021/12/08 05:01:15;;;;;;;3.10;1.10;;;14.30;55.60;;;;;;5031683;28;20054;-73
2021/12/08 05:04:06;;;;;;;1.75;1.08;;;14.40;61.40;;;;;;5031419;28;20103;-74
2021/12/08 05:06:46;;;;;;;1.40;0.95;;;14.30;61.50;;;;;;5031343;28;20057;-74
2021/12/08 05:09:16;;;;;;;1.00;0.90;;;14.30;61.30;;;;;;5011967;28;20054;-74
2021/12/08 05:11:44;;;;;;;1.38;0.98;;;14.20;61.10;;;;;;5045054;28;20053;-74
2021/12/08 05:14:12;;;;;;;1.00;0.88;;;14.20;61.40;;;;;;5011787;28;20137;-74
2021/12/08 05:16:40;;;;;;;1.80;0.90;;;14.30;61.30;;;;;;5011644;28;20068;-74
2021/12/08 05:19:09;;;;;;;1.33;1.10;;;14.40;61.40;;;;;;5044741;28;20137;-74
2021/12/08 05:21:40;;;;;;;2.30;1.10;;;14.20;61.20;;;;;;5011618;28;20137;-73
2021/12/08 05:24:09;;;;;;;1.92;1.05;;;14.20;61.10;;;;;;5021158;28;20084;-74
2021/12/08 05:26:38;;;;;;;1.40;1.10;;;14.20;61.00;;;;;;5030823;28;20534;-73
2021/12/08 05:29:06;;;;;;;2.97;1.45;;;14.20;61.20;;;;;;5031415;28;20063;-74
2021/12/08 05:31:34;;;;;;;1.50;1.00;;;14.00;61.00;;;;;;5031379;28;20132;-74
2021/12/08 05:34:00;;;;;;;1.65;1.10;;;14.30;61.10;;;;;;5031365;28;20129;-74
2021/12/08 05:36:27;;;;;;;1.00;0.82;;;14.50;60.90;;;;;;5031168;28;20133;-74
2021/12/08 05:38:56;;;;;;;1.85;0.90;;;14.60;61.20;;;;;;5030997;28;20132;-74
2021/12/08 05:41:24;;;;;;;1.20;1.00;;;14.40;61.00;;;;;;5030809;28;20144;-74
2021/12/08 05:43:51;;;;;;;1.08;0.95;;;14.30;61.20;;;;;;5030834;28;20056;-74
2021/12/08 05:46:20;;;;;;;1.23;0.90;;;14.30;61.30;;;;;;5030927;28;20496;-74
2021/12/08 05:48:49;;;;;;;1.52;1.10;;;14.30;56.40;;;;;;5031865;28;20120;-74
2021/12/08 05:51:20;;;;;;;0.90;0.82;;;14.50;61.20;;;;;;5031189;28;20406;-74
2021/12/08 05:53:49;;;;;;;1.08;0.90;;;14.30;61.00;;;;;;5031128;28;20081;-74
2021/12/08 05:56:17;;;;;;;1.30;1.10;;;14.90;61.30;;;;;;5030798;28;20134;-74
2021/12/08 05:58:44;;;;;;;1.00;0.90;;;14.20;60.90;;;;;;5030767;28;20148;-74
2021/12/08 06:01:15;;;;;;;1.65;1.10;;;14.40;61.10;;;;;;5030895;28;20053;-73
2021/12/08 06:03:42;;;;;;;2.22;1.02;;;14.40;61.20;;;;;;5030759;28;20095;-74
2021/12/08 06:06:09;;;;;;;1.05;0.90;;;14.40;61.00;;;;;;5030448;28;20132;-74
2021/12/08 06:08:36;;;;;;;1.35;1.02;;;14.30;61.00;;;;;;5030841;28;20132;-74
2021/12/08 06:11:03;;;;;;;1.23;0.80;;;14.20;60.80;;;;;;5030605;28;20061;-74
2021/12/08 06:13:31;;;;;;;1.20;1.00;;;14.30;61.10;;;;;;5030314;28;20125;-74
2021/12/08 06:15:58;;;;;;;1.00;0.90;;;14.50;61.10;;;;;;5030742;28;20132;-74
2021/12/08 06:18:27;;;;;;;1.10;0.80;;;14.30;61.10;;;;;;5030926;28;20107;-74
2021/12/08 06:20:58;;;;;;;1.23;1.10;;;14.30;60.90;;;;;;5032064;28;20060;-74
2021/12/08 06:23:25;;;;;;;1.77;1.00;;;14.40;61.00;;;;;;5030276;28;20522;-74
2021/12/08 06:25:52;;;;;;;1.48;0.90;;;;;;;;;;5030398;28;20136;-73
2021/12/08 06:28:19;;;;;;;1.08;0.90;;;14.50;61.00;;;;;;5050266;28;20049;-74
2021/12/08 06:30:49;;;;;;;1.40;1.00;;;14.40;61.20;;;;;;5034504;28;20140;-73
2021/12/08 06:33:16;;;;;;;1.10;1.00;;;14.00;61.10;;;;;;5034229;28;20077;-74
2021/12/08 06:35:44;;;;;;;1.10;0.90;;;14.20;60.90;;;;;;5034402;28;20136;-74
2021/12/08 06:38:12;;;;;;;2.13;0.90;;;14.30;60.80;;;;;;5034584;28;20140;-71
2021/12/08 06:40:40;;;;;;;0.98;0.90;;;14.40;60.90;;;;;;5036347;28;20402;-71
2021/12/08 06:43:08;;;;;;;2.22;0.98;;;14.60;57.90;;;;;;5043936;28;20425;-71
2021/12/08 06:45:37;;;;;;;1.13;0.90;;;13.80;60.80;;;;;;5043677;28;20132;-71
2021/12/08 06:48:07;;;;;;;1.60;1.02;;;14.40;61.30;;;;;;5042174;28;20056;-72
2021/12/08 06:50:36;;;;;;;1.58;1.20;;;14.20;61.20;;;;;;5043532;28;20140;-72
2021/12/08 06:53:03;;;;;;;1.42;1.10;;;14.50;56.30;;;;;;5042378;28;20051;-72
2021/12/08 06:55:32;;;;;;;1.35;1.00;;;14.10;60.90;;;;;;5040019;28;20132;-71
2021/12/08 06:58:00;;;;;;;2.60;1.15;;;13.80;60.80;;;;;;5043256;28;20528;-71
2021/12/08 07:00:46;;;;;;;1.00;0.90;;;14.50;61.10;;;;;;5044417;28;20118;-71
2021/12/08 07:03:31;;;;;;;1.15;0.90;;;14.50;54.40;;;;;;5039309;28;20486;-71
2021/12/08 07:06:08;;;;;;;1.13;1.00;;;14.50;60.90;;;;;;5042295;28;20063;-72
2021/12/08 07:08:36;;;;;;;0.95;0.85;;;14.10;60.80;;;;;;5041412;28;20067;-71
2021/12/08 07:11:03;;;;;;;1.13;1.00;;;14.50;60.70;;;;;;5042609;28;20139;-71
2021/12/08 07:13:31;;;;;;;1.02;0.85;;;14.60;60.80;;;;;;5039951;28;20176;-71
2021/12/08 07:15:59;;;;;;;1.13;0.88;;;14.40;60.80;;;;;;5042879;28;20151;-71
2021/12/08 07:18:28;;;;;;;1.02;0.90;;;14.60;54.20;;;;;;5044321;28;20208;-71
2021/12/08 07:20:57;;;;;;;1.33;0.95;;;14.60;60.60;;;;;;5040254;28;20107;-71
2021/12/08 07:23:25;;;;;;;1.83;1.42;;;14.00;60.30;;;;;;5042004;28;20081;-71
2021/12/08 07:25:54;;;;;;;2.08;1.20;;;14.60;60.60;;;;;;5043307;28;20132;-72
2021/12/08 07:28:21;;;;;;;1.17;1.00;;;14.70;60.90;;;;;;5043838;28;20144;-72
2021/12/08 07:30:54;;;;;;;1.25;0.80;;;14.30;60.40;;;;;;5041943;28;20053;-72
2021/12/08 07:33:21;;;;;;;1.70;1.00;;;14.80;60.90;;;;;;5042756;28;20128;-72
2021/12/08 07:35:50;;;;;;;1.27;1.02;;;14.20;60.50;;;;;;5043650;28;20132;-72
2021/12/08 07:38:18;;;;;;;1.38;0.90;;;14.70;60.50;;;;;;5037422;28;20513;-71
2021/12/08 07:40:50;;;;;;;1.85;0.90;;;14.70;60.60;;;;;;5041994;28;20139;-71
2021/12/08 07:43:20;;;;;;;1.42;0.90;;;14.70;60.70;;;;;;5052574;28;20048;-72
2021/12/08 07:45:50;;;;;;;1.67;1.00;;;14.10;60.50;;;;;;5040719;28;20045;-71
2021/12/08 07:48:21;;;;;;;1.52;1.00;;;14.60;61.20;;;;;;5038359;28;20140;-72
2021/12/08 07:50:50;;;;;;;0.80;0.80;;;14.80;60.80;;;;;;5043974;28;20132;-72
2021/12/08 07:53:18;;;;;;;1.30;1.00;;;14.80;60.80;;;;;;5037771;28;20050;-73
2021/12/08 07:55:46;;;;;;;1.65;1.05;;;14.70;60.60;;;;;;5042755;28;20049;-73
2021/12/08 07:58:14;;;;;;;1.08;0.90;;;14.90;59.50;;;;;;5032765;28;20140;-72
2021/12/08 08:00:43;;;;;;;1.35;1.00;;;14.70;60.70;;;;;;5033850;28;20132;-73
2021/12/08 08:03:10;;;;;;;1.70;1.00;;;15.60;60.80;;;;;;5034209;28;20081;-73
2021/12/08 08:05:37;;;;;;;1.05;0.95;;;14.40;60.40;;;;;;5034176;28;20137;-73
2021/12/08 08:08:07;;;;;;;1.00;0.82;;;14.70;61.10;;;;;;5033713;28;20136;-73
2021/12/08 08:10:35;;;;;;;1.58;0.90;;;14.70;58.50;;;;;;5034367;28;20457;-73
2021/12/08 08:13:06;;;;;;;1.00;0.90;;;14.50;60.90;;;;;;5034286;28;20125;-72
2021/12/08 08:15:37;;;;;;;2.40;1.00;;;15.00;54.80;;;;;;5038730;28;20051;-73
2021/12/08 08:18:07;;;;;;;1.75;1.10;;;15.00;61.10;;;;;;5038670;28;20431;-72
2021/12/08 08:20:36;;;;;;;1.75;1.00;;;14.10;61.50;;;;;;5058838;28;20049;-75
2021/12/08 08:23:05;;;;;;;2.28;0.90;;;15.00;61.10;;;;;;5043448;28;20049;-74
2021/12/08 08:25:37;;;;;;;2.25;1.10;;;15.10;61.10;;;;;;5040837;28;20137;-75
2021/12/08 08:28:05;;;;;;;1.50;1.00;;;15.10;60.90;;;;;;5040984;28;20084;-75
2021/12/08 08:30:34;;;;;;;2.92;1.00;;;15.80;61.60;;;;;;5042217;28;20055;-74
2021/12/08 08:33:00;;;;;;;2.22;0.93;;;15.00;61.10;;;;;;5051469;28;20124;-75
2021/12/08 08:35:30;;;;;;;1.48;0.95;;;15.00;61.00;;;;;;5052179;28;20781;-73
2021/12/08 08:37:57;;;;;;;2.35;0.90;;;14.90;61.30;;;;;;5052233;28;20060;-75
2021/12/08 08:40:29;;;;;;;1.77;0.93;;;14.50;60.40;;;;;;5040225;28;20088;-75
2021/12/08 08:42:56;;;;;;;1.58;0.90;;;15.10;60.90;;;;;;5031877;28;20060;-75
2021/12/08 08:45:25;;;;;;;1.08;0.77;;;15.00;60.90;;;;;;5031845;28;20061;-75
2021/12/08 08:47:55;;;;;;;1.67;0.95;;;14.10;60.50;;;;;;5032169;28;20140;-75
2021/12/08 08:50:23;;;;;;;2.22;1.00;;;15.50;61.30;;;;;;5031777;28;20053;-75
2021/12/08 08:52:51;;;;;;;1.83;0.90;;;15.40;61.20;;;;;;5031906;28;20136;-73
2021/12/08 08:55:21;;;;;;;1.10;0.90;;;15.70;61.20;;;;;;5032785;28;20661;-75
2021/12/08 08:57:49;;;;;;;1.48;1.00;;;15.00;61.00;;;;;;5012425;28;20561;-75
2021/12/08 09:00:19;;;;;;;1.13;0.90;;;15.10;60.90;;;;;;5019661;28;20124;-75
2021/12/08 09:02:47;;;;;;;1.10;1.00;;;14.80;60.80;;;;;;5042517;28;20669;-75
2021/12/08 09:05:18;;;;;;;2.72;1.10;;;14.90;60.60;;;;;;5041311;28;20124;-75
2021/12/08 09:07:46;;;;;;;1.75;1.00;;;14.50;60.30;;;;;;5036576;28;20136;-75
2021/12/08 09:10:15;;;;;;;1.30;0.80;;;14.90;60.70;;;;;;5044958;28;20135;-75
2021/12/08 09:12:43;;;;;;;2.15;1.00;;;15.10;60.60;;;;;;5043100;28;20053;-75
2021/12/08 09:15:13;;;;;;;3.22;1.20;;;15.00;54.20;;;;;;5030945;28;20045;-75
2021/12/08 09:17:41;;;;;;;2.72;1.23;;;14.40;60.70;;;;;;5031252;28;20490;-75
2021/12/08 09:20:11;;;;;;;4.03;1.10;;;15.10;60.80;;;;;;5033204;28;20132;-76
2021/12/08 09:22:41;;;;;;;3.58;1.50;;;14.70;60.80;;;;;;5040365;28;20115;-75
2021/12/08 09:25:10;;;;;;;2.05;0.88;;;14.80;60.80;;;;;;5039742;28;20413;-75
2021/12/08 09:27:38;;;;;;;3.63;1.30;;;15.10;54.40;;;;;;5040874;28;20060;-74
2021/12/08 09:30:09;;;;;;;7.32;2.15;;;15.10;54.70;;;;;;5041959;28;20502;-75
2021/12/08 09:32:42;;;;;;;5.85;1.40;;;15.20;61.50;;;;;;5038744;28;20057;-74
2021/12/08 09:35:11;;;;;;;2.90;1.50;;;15.10;61.60;;;;;;5039675;28;20057;-74
2021/12/08 09:37:40;;;;;;;7.22;1.58;;;15.20;61.60;;;;;;5039921;28;20135;-75
2021/12/08 09:40:09;;;;;;;3.88;1.42;;;15.80;62.40;;;;;;5041720;28;20127;-74
2021/12/08 09:42:39;;;;;;;7.35;1.42;;;14.90;62.40;;;;;;5040545;28;20550;-75
2021/12/08 09:45:08;;;;;;;2.58;1.17;;;15.20;62.80;;;;;;5039533;28;20513;-75
2021/12/08 09:47:34;;;;;;;4.85;1.20;;;15.20;62.70;;;;;;5047926;28;20152;-75
2021/12/08 09:50:06;;;;;;;5.32;1.67;;;14.80;62.70;;;;;;5050875;28;20131;-74
2021/12/08 09:52:33;;;;;;;4.82;1.48;;;14.60;62.40;;;;;;5067770;28;20139;-75
2021/12/08 09:55:00;;;;;;;3.58;1.20;;;16.10;63.30;;;;;;5058911;28;20144;-74
2021/12/08 09:57:27;;;;;;;3.58;1.35;;;15.20;63.70;;;;;;5030377;28;20111;-75
2021/12/08 09:59:54;;;;;;;5.13;1.63;;;15.50;62.80;;;;;;5030703;28;20088;-74
2021/12/08 10:02:28;;;;;;;4.13;1.30;;;15.30;62.50;;;;;;5030357;28;20139;-74
2021/12/08 10:04:56;;;;;;;5.13;1.50;;;15.20;63.30;;;;;;5029720;28;20053;-75
2021/12/08 10:07:25;;;;;;;4.90;1.50;;;15.40;62.80;;;;;;5030122;28;20045;-75
2021/12/08 10:09:52;;;;;;;2.65;1.10;;;;;;;;;;5030314;28;20132;-72
2021/12/08 10:12:19;;;;;;;3.80;1.60;;;15.30;62.80;;;;;;5030087;28;20473;-75
2021/12/08 10:14:46;;;;;;;4.25;1.33;;;;;;;;;;5030413;28;20135;-72
2021/12/08 10:17:13;;;;;;;2.83;1.10;;;15.20;62.90;;;;;;5015118;28;20494;-72
2021/12/08 10:19:40;;;;;;;3.15;1.35;;;14.80;62.20;;;;;;5030765;28;20130;-72
2021/12/08 10:22:17;;;;;;;2.92;1.38;;;15.50;62.50;;;;;;5030373;28;20156;-72
2021/12/08 10:24:53;;;;;;;2.90;1.17;;;15.40;62.70;;;;;;5061938;28;20056;-72
2021/12/08 10:27:20;;;;;;;3.75;1.30;;;15.30;62.70;;;;;;5029536;28;20144;-73
2021/12/08 10:29:47;;;;;;;2.40;1.30;;;14.70;62.40;;;;;;5030390;28;20060;-74
2021/12/08 10:32:14;;;;;;;2.20;1.20;;;15.30;62.60;;;;;;5030482;28;20064;-74
2021/12/08 10:34:52;;;;;;;2.25;1.20;;;14.30;62.40;;;;;;5036446;28;20112;-74
2021/12/08 10:37:20;;;;;;;3.72;1.17;;;15.60;62.60;;;;;;5038760;28;20053;-74
2021/12/08 10:39:48;;;;;;;3.40;1.30;;;15.50;62.70;;;;;;5031370;28;20136;-74
2021/12/08 10:42:18;;;;;;;2.20;1.20;;;15.20;62.10;;;;;;5028891;28;20137;-73
2021/12/08 10:44:54;;;;;;;3.15;1.63;;;14.50;61.80;;;;;;5030152;28;20518;-74
2021/12/08 10:47:22;;;;;;;3.78;1.33;;;14.70;62.10;;;;;;5028234;28;20059;-73
2021/12/08 10:55:28;;;;;;;3.10;1.20;;;15.40;62.40;;;;;;5030290;28;20394;-73
2021/12/08 10:57:55;;;;;;;2.28;1.33;;;16.20;62.80;;;;;;5029808;28;20158;-72
2021/12/08 11:00:24;;;;;;;2.42;1.08;;;15.20;62.20;;;;;;5030145;28;20050;-73
2021/12/08 11:02:52;;;;;;;2.70;1.10;;;15.30;56.10;;;;;;5031463;28;20056;-73
2021/12/08 11:05:43;;;;;;;1.85;1.27;;;14.90;62.30;;;;;;5030194;28;20045;-72
2021/12/08 11:08:19;;;;;;;1.48;0.98;;;15.40;62.60;;;;;;5029811;28;20053;-73
2021/12/08 11:10:49;;;;;;;2.45;1.20;;;15.60;62.50;;;;;;5030431;28;20192;-72
2021/12/08 11:13:17;;;;;;;4.38;1.38;;;14.20;61.90;;;;;;5031165;28;20140;-72
2021/12/08 11:15:44;;;;;;;2.50;1.15;;;15.20;61.00;;;;;;5033017;28;20152;-73
2021/12/08 11:18:14;;;;;;;3.25;1.17;;;15.30;62.40;;;;;;5033897;28;20079;-73
2021/12/08 11:20:42;;;;;;;2.55;1.08;;;15.30;62.90;;;;;;5033405;28;20418;-73
2021/12/08 11:23:11;;;;;;;3.15;1.27;;;15.20;62.20;;;;;;5033634;28;20482;-73
2021/12/08 11:25:40;;;;;;;2.95;1.10;;;14.30;61.70;;;;;;5033361;28;20049;-75
2021/12/08 11:28:29;;;;;;;3.90;1.30;;;15.20;62.10;;;;;;5016482;28;20426;-73
2021/12/08 11:30:56;;;;;;;1.80;0.98;;;15.20;62.40;;;;;;5035054;28;20049;-73
2021/12/08 11:33:24;;;;;;;2.63;1.20;;;14.60;62.40;;;;;;5033557;28;20124;-72
2021/12/08 11:36:06;;;;;;;2.45;1.10;;;14.20;61.70;;;;;;5033490;28;20061;-73
2021/12/08 11:38:33;;;;;;;2.65;1.20;;;15.00;62.20;;;;;;5031237;28;20436;-73
2021/12/08 11:40:59;;;;;;;2.45;1.00;;;15.00;62.30;;;;;;5032920;28;20144;-73
2021/12/08 11:43:30;;;;;;;3.53;1.20;;;15.40;62.20;;;;;;5032948;28;20140;-73
2021/12/08 11:46:13;;;;;;;3.72;1.10;;;14.90;62.30;;;;;;5032569;28;20414;-74
2021/12/08 11:48:40;;;;;;;2.17;1.50;;;13.90;62.30;;;;;;5033403;28;20071;-75
2021/12/08 11:51:08;;;;;;;6.18;1.27;;;14.90;62.80;;;;;;5032098;28;20136;-74
2021/12/08 11:53:37;;;;;;;1.70;1.20;;;14.90;57.10;;;;;;5033020;28;20132;-74
2021/12/08 11:56:04;;;;;;;2.30;1.20;;;15.10;63.00;;;;;;5032502;28;20455;-74
2021/12/08 11:58:32;;;;;;;5.03;1.80;;;15.10;63.10;;;;;;5033179;28;20136;-74
2021/12/08 12:01:01;;;;;;;2.35;1.02;;;15.20;63.10;;;;;;5032907;28;20088;-72
2021/12/08 12:03:28;;;;;;;2.38;1.20;;;15.10;62.80;;;;;;5033223;28;20383;-72
2021/12/08 12:05:55;;;;;;;3.72;1.65;;;15.10;62.80;;;;;;5032454;28;20128;-71
2021/12/08 12:08:22;;;;;;;2.50;1.00;;;15.10;62.60;;;;;;5033770;28;20103;-71
2021/12/08 12:10:50;;;;;;;4.43;1.27;;;14.50;62.10;;;;;;5033179;28;20064;-71
2021/12/08 12:13:17;;;;;;;4.07;1.15;;;14.90;63.70;;;;;;5032783;28;20132;-72
2021/12/08 12:15:47;;;;;;;2.78;1.02;;;14.10;62.70;;;;;;5032461;28;20045;-71
2021/12/08 12:18:14;;;;;;;2.38;1.10;;;14.20;62.00;;;;;;5032363;28;20418;-71
2021/12/08 12:20:42;;;;;;;4.28;1.20;;;15.00;62.50;;;;;;5032750;28;20140;-72
2021/12/08 12:23:23;;;;;;;3.80;1.15;;;15.00;62.50;;;;;;5032327;28;20049;-73
2021/12/08 12:26:08;;;;;;;5.57;1.20;;;15.00;62.70;;;;;;5029133;28;20049;-73
2021/12/08 12:29:03;;;;;;;5.50;1.38;;;14.90;56.90;;;;;;5031271;28;20054;-73
2021/12/08 12:31:33;;;;;;;3.58;1.10;;;14.20;62.60;;;;;;5031360;28;20132;-73
2021/12/08 12:34:00;;;;;;;2.70;1.10;;;;;;;;;;5030082;28;20136;-73
2021/12/08 12:36:28;;;;;;;1.40;1.00;;;14.90;62.90;;;;;;5031370;28;20562;-72
2021/12/08 12:39:09;;;;;;;2.60;1.17;;;14.30;62.50;;;;;;5032045;28;20049;-72
2021/12/08 12:41:35;;;;;;;1.80;1.08;;;15.10;63.20;;;;;;5048932;28;20434;-73
2021/12/08 12:44:20;;;;;;;2.58;1.20;;;14.70;56.50;;;;;;5032310;28;20472;-72
2021/12/08 12:47:15;;;;;;;2.17;1.03;;;15.00;63.40;;;;;;5032022;28;20482;-72
2021/12/08 12:49:42;;;;;;;2.17;1.10;;;14.40;62.60;;;;;;5033290;28;20049;-72
2021/12/08 12:52:10;;;;;;;1.50;1.10;;;15.20;62.70;;;;;;5032010;28;20472;-72
2021/12/08 12:54:37;;;;;;;3.20;1.10;;;14.90;62.60;;;;;;5033203;28;20502;-72
2021/12/08 12:57:06;;;;;;;2.05;1.00;;;15.20;62.40;;;;;;5032604;28;20049;-72
2021/12/08 12:59:39;;;;;;;3.65;1.40;;;14.70;62.30;;;;;;5048627;28;20057;-72
2021/12/08 13:02:06;;;;;;;3.10;1.20;;;15.30;62.30;;;;;;5031411;28;20136;-73
2021/12/08 13:04:35;;;;;;;2.10;1.10;;;14.70;62.20;;;;;;5031240;28;20132;-72
2021/12/08 13:07:03;;;;;;;3.00;1.25;;;15.20;62.60;;;;;;5032231;28;20045;-73
2021/12/08 13:09:41;;;;;;;3.53;1.38;;;15.10;62.10;;;;;;5031604;28;20132;-72
2021/12/08 13:12:09;;;;;;;2.63;1.15;;;15.20;62.70;;;;;;5031979;28;20053;-72
2021/12/08 13:14:35;;;;;;;2.38;1.10;;;14.70;62.20;;;;;;5031831;28;20108;-72
2021/12/08 13:17:17;;;;;;;1.92;1.08;;;15.10;62.00;;;;;;5031254;28;20136;-72
2021/12/08 13:19:47;;;;;;;3.00;1.10;;;15.10;63.00;;;;;;5031636;28;20139;-71
2021/12/08 13:22:53;;;;;;;2.85;1.05;;;15.30;62.40;;;;;;5031321;28;20057;-72
2021/12/08 13:25:58;;;;;;;3.00;1.17;;;14.60;62.00;;;;;;5031560;28;20470;-71
2021/12/08 13:28:33;;;;;;;2.45;1.30;;;15.40;62.10;;;;;;5031096;28;20053;-72
2021/12/08 13:31:07;;;;;;;1.70;1.00;;;15.20;62.00;;;;;;5031250;28;20049;-71
2021/12/08 13:33:36;;;;;;;2.30;1.10;;;15.30;62.90;;;;;;5048156;28;20112;-73
2021/12/08 13:36:32;;;;;;;3.05;1.15;;;15.20;62.20;;;;;;5047280;28;20436;-72